createdAt,value
2019-06-15T00:01:39.735Z,28.80
2019-06-15T00:04:07.233Z,29.87
2019-06-15T00:06:34.782Z,25.97
2019-06-15T00:09:02.247Z,27.35
2019-06-15T00:11:29.776Z,27.93
2019-06-15T00:13:57.236Z,33.63
2019-06-15T00:16:24.656Z,31.15
2019-06-15T00:18:52.056Z,27.40
2019-06-15T00:21:19.577Z,30.27
2019-06-15T00:23:47.078Z,29.45
2019-06-15T00:26:14.611Z,28.67
2019-06-15T00:28:42.052Z,25.92
2019-06-15T00:31:09.452Z,31.37
2019-06-15T00:33:36.810Z,31.70
2019-06-15T00:36:04.238Z,29.20
2019-06-15T00:38:31.595Z,30.48
2019-06-15T00:40:59.021Z,31.93
2019-06-15T00:43:26.493Z,30.80
2019-06-15T00:45:53.816Z,29.45
2019-06-15T00:48:21.220Z,30.72
2019-06-15T00:50:48.575Z,28.95
2019-06-15T00:53:16.158Z,28.90
2019-06-15T00:55:46.277Z,29.82
2019-06-15T00:58:13.680Z,33.45
2019-06-15T01:00:41.158Z,29.20
2019-06-15T01:03:08.637Z,32.30
2019-06-15T01:05:36.094Z,27.95
2019-06-15T01:08:03.528Z,27.50
2019-06-15T01:10:30.949Z,29.77
2019-06-15T01:12:58.623Z,30.68
2019-06-15T01:15:25.973Z,27.73
2019-06-15T01:17:53.460Z,30.08
2019-06-15T01:20:21.037Z,29.12
2019-06-15T01:22:48.593Z,30.85
2019-06-15T01:25:15.902Z,29.37
2019-06-15T01:27:43.367Z,30.55
2019-06-15T01:30:12.159Z,28.38
2019-06-15T01:32:41.515Z,30.08
2019-06-15T01:35:08.949Z,31.10
2019-06-15T01:37:36.286Z,33.08
2019-06-15T01:40:07.267Z,32.98
2019-06-15T01:42:34.682Z,36.20
2019-06-15T01:45:05.451Z,33.75
2019-06-15T01:47:32.868Z,33.30
2019-06-15T01:50:00.424Z,32.60
2019-06-15T01:52:27.755Z,31.95
2019-06-15T01:54:55.163Z,35.45
2019-06-15T01:57:22.593Z,33.88
2019-06-15T01:59:49.917Z,39.13
2019-06-15T02:02:17.362Z,40.70
2019-06-15T02:04:44.750Z,37.15
2019-06-15T02:07:12.165Z,31.57
2019-06-15T02:09:39.490Z,36.90
2019-06-15T02:12:06.820Z,35.35
2019-06-15T02:14:34.263Z,34.85
2019-06-15T02:17:04.498Z,38.13
2019-06-15T02:19:31.837Z,39.27
2019-06-15T02:21:59.261Z,33.10
2019-06-15T02:24:26.714Z,32.10
2019-06-15T02:26:54.026Z,34.83
2019-06-15T02:29:21.384Z,33.08
2019-06-15T02:31:48.806Z,29.52
2019-06-15T02:34:16.203Z,35.60
2019-06-15T02:36:43.518Z,33.58
2019-06-15T02:39:10.950Z,36.85
2019-06-15T02:41:38.624Z,34.92
2019-06-15T02:44:06.001Z,35.70
2019-06-15T02:46:33.373Z,35.60
2019-06-15T02:49:00.773Z,34.23
2019-06-15T02:51:28.112Z,34.75
2019-06-15T02:53:55.489Z,36.08
2019-06-15T02:56:22.928Z,30.77
2019-06-15T02:58:50.388Z,31.57
2019-06-15T03:01:17.842Z,31.70
2019-06-15T03:03:45.318Z,29.57
2019-06-15T03:06:12.703Z,29.02
2019-06-15T03:08:40.167Z,33.85
2019-06-15T03:11:07.681Z,31.90
2019-06-15T03:13:35.317Z,35.95
2019-06-15T03:16:05.571Z,31.07
2019-06-15T03:18:32.906Z,33.38
2019-06-15T03:21:00.290Z,33.73
2019-06-15T03:23:27.766Z,35.58
2019-06-15T03:26:05.041Z,34.13
2019-06-15T03:28:24.383Z,30.95
2019-06-15T03:30:51.753Z,31.80
2019-06-15T03:33:19.172Z,28.32
2019-06-15T03:35:46.638Z,30.50
2019-06-15T03:38:14.203Z,28.60
2019-06-15T03:40:42.082Z,29.60
2019-06-15T03:43:09.560Z,23.90
2019-06-15T03:45:37.062Z,27.22
2019-06-15T03:48:06.309Z,28.42
2019-06-15T03:50:33.794Z,24.85
2019-06-15T03:53:01.317Z,28.35
2019-06-15T03:55:28.760Z,24.18
2019-06-15T03:57:56.122Z,29.45
2019-06-15T04:00:27.768Z,24.82
2019-06-15T04:02:55.686Z,31.93
2019-06-15T04:05:23.155Z,27.20
2019-06-15T04:07:50.567Z,25.72
2019-06-15T04:10:18.139Z,25.72
2019-06-15T04:12:50.439Z,27.45
2019-06-15T04:15:19.088Z,23.25
2019-06-15T04:17:46.544Z,26.35
2019-06-15T04:20:14.098Z,22.85
2019-06-15T04:22:41.488Z,25.88
2019-06-15T04:25:11.257Z,26.40
2019-06-15T04:27:38.756Z,22.55
2019-06-15T04:30:06.273Z,20.55
2019-06-15T04:32:33.729Z,23.00
2019-06-15T04:35:01.275Z,24.25
2019-06-15T04:37:37.093Z,25.27
2019-06-15T04:40:00.226Z,22.93
2019-06-15T04:42:27.681Z,20.52
2019-06-15T04:44:55.373Z,20.43
2019-06-15T04:47:22.914Z,24.55
2019-06-15T04:49:50.348Z,19.73
2019-06-15T04:52:17.931Z,22.62
2019-06-15T04:54:46.997Z,18.73
2019-06-15T04:57:14.493Z,19.55
2019-06-15T04:59:42.001Z,19.57
2019-06-15T05:02:09.407Z,19.17
2019-06-15T05:04:36.768Z,19.65
2019-06-15T05:07:04.222Z,18.25
2019-06-15T05:09:31.622Z,17.12
2019-06-15T05:11:59.010Z,20.32
2019-06-15T05:14:26.520Z,17.35
2019-06-15T05:16:53.909Z,16.77
2019-06-15T05:19:26.717Z,17.45
2019-06-15T05:21:54.253Z,15.08
2019-06-15T05:24:23.252Z,16.95
2019-06-15T05:27:05.540Z,15.95
2019-06-15T05:29:25.466Z,16.60
2019-06-15T05:31:54.727Z,18.25
2019-06-15T05:34:24.689Z,15.88
2019-06-15T05:36:54.595Z,17.50
2019-06-15T05:39:23.629Z,15.38
2019-06-15T05:41:55.023Z,16.52
2019-06-15T05:44:22.869Z,17.67
2019-06-15T05:46:53.069Z,15.38
2019-06-15T05:49:23.292Z,16.32
2019-06-15T05:51:52.326Z,14.87
2019-06-15T05:54:21.379Z,16.25
2019-06-15T05:56:48.964Z,14.60
2019-06-15T05:59:41.872Z,14.87
2019-06-15T06:02:09.366Z,15.93
2019-06-15T06:04:39.849Z,14.33
2019-06-15T06:07:07.390Z,16.20
2019-06-15T06:09:34.917Z,12.70
2019-06-15T06:12:02.475Z,17.40
2019-06-15T06:14:29.910Z,14.35
2019-06-15T06:16:57.482Z,14.50
2019-06-15T06:19:38.585Z,14.78
2019-06-15T06:22:15.189Z,13.80
2019-06-15T06:24:39.838Z,14.50
2019-06-15T06:27:07.352Z,12.95
2019-06-15T06:29:34.825Z,13.58
2019-06-15T06:32:05.684Z,15.05
2019-06-15T06:34:33.145Z,19.48
2019-06-15T06:37:02.275Z,17.92
2019-06-15T06:39:31.285Z,14.95
2019-06-15T06:42:00.005Z,14.15
2019-06-15T06:44:30.376Z,14.65
2019-06-15T06:46:57.894Z,13.65
2019-06-15T06:49:27.936Z,14.45
2019-06-15T06:51:55.403Z,14.38
2019-06-15T06:54:22.924Z,15.28
2019-06-15T06:56:52.074Z,15.28
2019-06-15T06:59:21.703Z,15.75
2019-06-15T07:01:51.180Z,22.30
2019-06-15T07:04:29.748Z,18.87
2019-06-15T07:06:59.431Z,14.35
2019-06-15T07:09:36.125Z,17.17
2019-06-15T07:12:08.128Z,15.80
2019-06-15T07:14:38.882Z,18.27
2019-06-15T07:17:12.140Z,14.80
2019-06-15T07:22:32.564Z,16.50
2019-06-15T07:25:00.156Z,15.00
2019-06-15T07:27:32.434Z,14.68
2019-06-15T07:30:12.332Z,16.40
2019-06-15T07:32:43.064Z,15.10
2019-06-15T07:35:12.168Z,16.23
2019-06-15T07:37:41.234Z,12.40
2019-06-15T07:40:18.076Z,12.23
2019-06-15T08:15:26.449Z,11.18
2019-06-15T08:18:18.772Z,11.48
2019-06-15T08:36:45.561Z,11.55
2019-06-15T08:39:16.495Z,11.28
2019-06-15T08:41:48.145Z,10.20
2019-06-15T08:44:18.366Z,11.78
2019-06-15T08:46:44.815Z,9.63
2019-06-15T08:49:12.312Z,14.28
2019-06-15T08:51:39.704Z,11.28
2019-06-15T08:54:07.304Z,13.20
2019-06-15T08:56:36.711Z,10.55
2019-06-15T08:59:07.116Z,10.68
2019-06-15T09:01:36.204Z,10.08
2019-06-15T09:04:07.451Z,15.95
2019-06-15T09:14:57.713Z,14.38
2019-06-15T09:25:30.413Z,10.58
2019-06-15T09:28:00.084Z,13.35
2019-06-15T09:30:27.822Z,13.58
2019-06-15T09:32:55.151Z,13.88
2019-06-15T09:35:22.481Z,9.88
2019-06-15T09:37:49.884Z,12.28
2019-06-15T09:40:17.319Z,12.28
2019-06-15T09:42:44.733Z,13.22
2019-06-15T09:45:12.142Z,9.70
2019-06-15T09:47:39.471Z,10.13
2019-06-15T09:50:06.792Z,9.58
2019-06-15T09:52:34.240Z,10.60
2019-06-15T09:55:01.625Z,11.22
2019-06-15T09:57:29.266Z,9.75
2019-06-15T09:59:56.611Z,14.18
2019-06-15T10:02:24.001Z,11.15
2019-06-15T10:04:53.630Z,13.08
2019-06-15T10:07:23.891Z,8.70
2019-06-15T10:09:51.318Z,10.90
2019-06-15T10:12:18.696Z,10.90
2019-06-15T10:14:46.162Z,12.75
2019-06-15T10:17:13.560Z,9.85
2019-06-15T10:19:40.987Z,8.58
2019-06-15T10:22:08.314Z,12.10
2019-06-15T10:24:35.629Z,12.35
2019-06-15T10:27:02.980Z,9.03
2019-06-15T10:29:41.690Z,10.23
2019-06-15T10:31:59.267Z,11.30
2019-06-15T10:34:26.697Z,10.93
2019-06-15T10:36:54.001Z,10.55
2019-06-15T10:39:21.339Z,12.03
2019-06-15T10:41:48.679Z,11.25
2019-06-15T10:44:16.027Z,8.28
2019-06-15T10:46:45.938Z,10.88
2019-06-15T10:49:13.314Z,14.13
2019-06-15T10:51:40.691Z,11.57
2019-06-15T10:54:08.049Z,10.20
2019-06-15T10:56:35.666Z,7.90
2019-06-15T10:59:03.004Z,8.88
2019-06-15T11:01:30.391Z,7.17
2019-06-15T11:03:57.728Z,11.45
2019-06-15T11:06:25.049Z,9.05
2019-06-15T11:08:52.492Z,14.95
2019-06-15T11:11:21.801Z,14.28
2019-06-15T11:13:49.453Z,11.28
2019-06-15T11:16:16.931Z,9.73
2019-06-15T11:18:44.361Z,13.90
2019-06-15T11:21:11.687Z,11.85
2019-06-15T11:23:39.121Z,11.85
2019-06-15T11:26:06.432Z,12.68
2019-06-15T11:28:33.943Z,13.80
2019-06-15T11:31:01.407Z,13.83
2019-06-15T11:33:28.766Z,12.00
2019-06-15T11:35:56.153Z,10.38
2019-06-15T11:38:23.499Z,11.35
2019-06-15T11:40:50.825Z,12.50
2019-06-15T11:43:18.202Z,9.30
2019-06-15T11:45:45.922Z,13.15
2019-06-15T11:48:13.250Z,10.63
2019-06-15T11:50:40.580Z,12.00
2019-06-15T11:53:07.974Z,13.75
2019-06-15T11:55:39.393Z,14.25
2019-06-15T11:58:04.530Z,11.95
2019-06-15T12:00:33.496Z,10.78
2019-06-15T12:03:00.884Z,13.93
2019-06-15T12:05:28.325Z,15.13
2019-06-15T12:07:55.652Z,9.68
2019-06-15T12:10:25.736Z,10.40
2019-06-15T12:12:53.068Z,14.65
2019-06-15T12:15:20.414Z,11.22
2019-06-15T12:17:47.792Z,11.35
2019-06-15T12:20:16.843Z,14.87
2019-06-15T12:22:44.092Z,14.15
2019-06-15T12:25:11.501Z,11.63
2019-06-15T12:27:38.834Z,13.15
2019-06-15T12:30:06.571Z,12.88
2019-06-15T12:32:33.926Z,12.45
2019-06-15T12:35:01.225Z,9.10
2019-06-15T12:37:29.604Z,15.63
2019-06-15T12:39:56.977Z,13.30
2019-06-15T12:42:24.273Z,9.18
2019-06-15T12:44:51.622Z,13.80
2019-06-15T12:47:20.593Z,10.28
2019-06-15T12:49:48.002Z,8.18
2019-06-15T12:52:15.413Z,11.43
2019-06-15T12:54:42.757Z,12.73
2019-06-15T12:57:10.107Z,12.05
2019-06-15T12:59:37.438Z,9.65
2019-06-15T13:02:04.744Z,10.18
2019-06-15T13:04:32.249Z,11.60
2019-06-15T13:06:59.581Z,10.13
2019-06-15T13:09:26.959Z,11.15
2019-06-15T13:11:54.309Z,10.65
2019-06-15T13:14:21.710Z,8.90
2019-06-15T13:16:49.116Z,8.95
2019-06-15T13:19:16.511Z,7.80
2019-06-15T13:21:44.222Z,11.00
2019-06-15T13:24:11.713Z,11.70
2019-06-15T13:26:39.068Z,8.68
2019-06-15T13:29:07.439Z,6.95
2019-06-15T13:31:34.761Z,11.63
2019-06-15T13:34:02.183Z,8.15
2019-06-15T13:36:29.533Z,9.48
2019-06-15T13:38:56.955Z,11.12
2019-06-15T13:41:24.630Z,7.17
2019-06-15T13:43:52.093Z,11.33
2019-06-15T13:46:19.446Z,10.13
2019-06-15T13:48:46.766Z,11.48
2019-06-15T13:51:14.318Z,7.55
2019-06-15T13:53:41.671Z,9.88
2019-06-15T13:56:09.025Z,12.50
2019-06-15T13:58:36.440Z,16.57
2019-06-15T14:01:03.785Z,13.15
2019-06-15T14:03:31.126Z,10.80
2019-06-15T14:05:58.448Z,7.60
2019-06-15T14:08:25.896Z,8.80
2019-06-15T14:10:53.213Z,12.20
2019-06-15T14:13:20.673Z,15.08
2019-06-15T14:15:48.068Z,9.90
2019-06-15T14:18:15.371Z,12.37
2019-06-15T14:20:42.716Z,11.08
2019-06-15T14:23:10.130Z,13.00
2019-06-15T14:25:37.439Z,8.33
2019-06-15T14:28:04.803Z,11.05
2019-06-15T14:30:32.296Z,11.83
2019-06-15T14:32:59.689Z,11.10
2019-06-15T14:35:27.153Z,12.50
2019-06-15T14:37:54.593Z,9.28
2019-06-15T14:40:21.959Z,9.63
2019-06-15T14:42:49.289Z,9.35
2019-06-15T14:45:16.667Z,15.18
2019-06-15T14:47:44.035Z,9.58
2019-06-15T14:50:11.390Z,9.70
2019-06-15T14:52:38.809Z,6.50
2019-06-15T14:55:07.240Z,8.68
2019-06-15T14:57:36.125Z,10.93
2019-06-15T15:00:07.942Z,10.28
2019-06-15T15:02:33.341Z,8.70
2019-06-15T15:05:00.681Z,12.07
2019-06-15T15:07:28.021Z,7.37
2019-06-15T15:09:56.663Z,11.15
2019-06-15T15:12:26.363Z,8.83
2019-06-15T15:14:53.347Z,9.38
2019-06-15T15:17:20.654Z,10.03
2019-06-15T15:19:48.111Z,11.57
2019-06-15T15:22:16.006Z,8.78
2019-06-15T15:24:43.351Z,9.43
2019-06-15T15:27:10.694Z,12.10
2019-06-15T15:29:38.037Z,10.85
2019-06-15T15:32:07.971Z,9.58
2019-06-15T15:34:34.691Z,13.18
2019-06-15T15:37:02.117Z,11.22
2019-06-15T15:39:29.437Z,15.25
2019-06-15T15:41:56.778Z,8.90
2019-06-15T15:44:26.709Z,10.88
2019-06-15T15:46:53.219Z,8.55
2019-06-15T15:49:20.553Z,15.35
2019-06-15T15:51:48.089Z,11.80
2019-06-15T15:54:15.535Z,12.28
2019-06-15T15:56:42.979Z,11.25
2019-06-15T15:59:10.374Z,14.55
2019-06-15T16:01:37.735Z,12.90
2019-06-15T16:04:06.353Z,13.40
2019-06-15T16:06:36.178Z,11.95
2019-06-15T16:09:05.729Z,11.35
2019-06-15T16:11:32.316Z,12.60
2019-06-15T16:13:59.644Z,9.98
2019-06-15T16:16:26.995Z,13.15
2019-06-15T16:18:56.125Z,14.73
2019-06-15T16:21:25.898Z,16.90
2019-06-15T16:23:54.930Z,11.03
2019-06-15T16:26:21.730Z,13.72
2019-06-15T16:28:49.065Z,14.55
2019-06-15T16:31:18.804Z,14.35
2019-06-15T16:33:46.531Z,12.95
2019-06-15T16:36:13.996Z,11.68
2019-06-15T16:38:41.350Z,17.48
2019-06-15T16:41:08.716Z,12.47
2019-06-15T16:43:37.071Z,16.93
2019-06-15T16:46:06.416Z,10.32
2019-06-15T16:48:33.543Z,12.33
2019-06-15T16:51:00.884Z,12.10
2019-06-15T16:53:28.223Z,13.98
2019-06-15T16:55:56.542Z,15.10
2019-06-15T16:58:26.352Z,17.62
2019-06-15T17:00:53.076Z,11.60
2019-06-15T17:03:25.110Z,14.47
2019-06-15T17:05:52.107Z,17.65
2019-06-15T17:08:19.518Z,12.15
2019-06-15T17:10:46.900Z,12.93
2019-06-15T17:13:16.084Z,10.63
2019-06-15T17:15:43.625Z,14.33
2019-06-15T17:18:11.070Z,12.43
2019-06-15T17:20:48.397Z,14.10
2019-06-15T17:23:16.436Z,16.32
2019-06-15T17:25:43.836Z,16.82
2019-06-15T17:28:11.167Z,14.10
2019-06-15T17:30:38.494Z,14.68
2019-06-15T17:33:08.228Z,14.70
2019-06-15T17:35:36.277Z,12.10
2019-06-15T17:38:05.754Z,17.32
2019-06-15T17:40:36.447Z,12.95
2019-06-15T17:43:06.434Z,14.68
2019-06-15T17:45:33.651Z,12.33
2019-06-15T17:48:02.712Z,12.90
2019-06-15T17:50:31.712Z,12.75
2019-06-15T17:53:02.221Z,13.70
2019-06-15T17:55:29.615Z,11.78
2019-06-15T17:57:57.782Z,11.30
2019-06-15T18:00:26.838Z,14.13
2019-06-15T18:02:56.113Z,10.50
2019-06-15T18:05:23.322Z,10.65
2019-06-15T18:07:50.788Z,15.58
2019-06-15T18:10:18.230Z,12.35
2019-06-15T18:12:46.837Z,12.58
2019-06-15T18:15:14.428Z,13.62
2019-06-15T18:17:41.901Z,10.43
2019-06-15T18:20:09.224Z,13.22
2019-06-15T18:22:36.562Z,15.63
2019-06-15T18:25:06.447Z,12.05
2019-06-15T18:27:33.525Z,16.48
2019-06-15T18:30:00.889Z,15.75
2019-06-15T18:32:28.271Z,17.90
2019-06-15T18:34:56.098Z,16.90
2019-06-15T18:37:23.963Z,14.98
2019-06-15T18:39:51.308Z,16.12
2019-06-15T18:42:18.732Z,14.18
2019-06-15T18:44:47.945Z,17.37
2019-06-15T18:47:16.523Z,15.45
2019-06-15T18:49:43.961Z,15.93
2019-06-15T18:52:11.419Z,15.30
2019-06-15T18:54:38.877Z,12.70
2019-06-15T18:57:07.445Z,14.58
2019-06-15T18:59:36.532Z,14.47
2019-06-15T19:02:06.532Z,11.70
2019-06-15T19:04:32.890Z,17.17
2019-06-15T19:07:00.330Z,13.53
2019-06-15T19:09:27.724Z,17.30
2019-06-15T19:11:56.626Z,14.38
2019-06-15T19:14:24.236Z,16.35
2019-06-15T19:16:51.550Z,15.85
2019-06-15T19:19:18.942Z,19.17
2019-06-15T19:21:46.322Z,14.28
2019-06-15T19:24:16.566Z,12.05
2019-06-15T19:26:42.804Z,10.88
2019-06-15T19:29:10.156Z,20.05
2019-06-15T19:31:37.558Z,15.45
2019-06-15T19:34:06.754Z,15.98
2019-06-15T19:36:36.486Z,13.95
2019-06-15T19:39:06.128Z,13.30
2019-06-15T19:41:32.849Z,11.70
2019-06-15T19:44:00.291Z,12.98
2019-06-15T19:46:27.691Z,14.87
2019-06-15T19:48:56.052Z,18.07
2019-06-15T19:51:26.036Z,14.35
2019-06-15T19:53:52.537Z,20.00
2019-06-15T19:56:19.916Z,21.02
2019-06-15T19:58:47.275Z,17.70
2019-06-15T20:01:16.665Z,24.90
2019-06-15T20:03:46.314Z,29.40
2019-06-15T20:06:12.774Z,27.02
2019-06-15T20:08:41.101Z,32.08
2019-06-15T20:11:08.451Z,32.17
2019-06-15T20:13:37.140Z,31.50
2019-06-15T20:16:05.295Z,31.75
2019-06-15T20:18:33.817Z,38.42
2019-06-15T20:21:01.347Z,30.55
2019-06-15T20:23:29.030Z,31.93
2019-06-15T20:25:56.418Z,30.70
2019-06-15T20:28:23.827Z,40.70
2019-06-15T20:30:51.238Z,40.52
2019-06-15T20:33:18.574Z,42.78
2019-06-15T20:35:47.190Z,43.65
2019-06-15T20:38:16.099Z,34.65
2019-06-15T20:40:43.647Z,35.60
2019-06-15T20:43:11.012Z,40.75
2019-06-15T20:45:38.450Z,32.42
2019-06-15T20:48:06.820Z,35.35
2019-06-15T20:50:36.275Z,34.45
2019-06-15T20:53:05.842Z,31.17
2019-06-15T20:55:32.502Z,30.20
2019-06-15T20:57:59.831Z,28.15
2019-06-15T21:00:27.302Z,23.60
2019-06-15T21:02:56.120Z,24.80
2019-06-15T21:05:34.896Z,29.72
2019-06-15T21:07:52.782Z,24.82
2019-06-15T21:10:20.229Z,23.00
2019-06-15T21:12:47.708Z,26.15
2019-06-15T21:15:15.115Z,24.80
2019-06-15T21:17:42.464Z,25.85
2019-06-15T21:20:09.878Z,34.30
2019-06-15T21:22:37.273Z,18.60
2019-06-15T21:25:06.814Z,20.92
2019-06-15T21:27:34.030Z,18.95
2019-06-15T21:30:01.462Z,18.82
2019-06-15T21:32:28.850Z,16.07
2019-06-15T21:34:56.258Z,13.88
2019-06-15T21:37:25.926Z,12.93
2019-06-15T21:39:52.718Z,14.00
2019-06-15T21:42:20.054Z,10.70
2019-06-15T21:44:47.413Z,11.10
2019-06-15T21:47:14.761Z,14.43
2019-06-15T21:49:42.107Z,12.03
2019-06-15T21:52:09.822Z,13.55
2019-06-15T21:54:37.143Z,10.23
2019-06-15T21:57:06.848Z,11.65
2019-06-15T21:59:33.596Z,7.97
2019-06-15T22:02:00.986Z,12.33
2019-06-15T22:04:28.302Z,7.05
2019-06-15T22:06:56.433Z,7.75
2019-06-15T22:09:26.367Z,13.32
2019-06-15T22:11:52.862Z,11.38
2019-06-15T22:14:20.213Z,9.58
2019-06-15T22:16:47.535Z,7.53
2019-06-15T22:19:16.941Z,7.97
2019-06-15T22:21:43.871Z,9.03
2019-06-15T22:24:11.333Z,6.35
2019-06-15T22:26:38.681Z,8.08
2019-06-15T22:29:07.404Z,18.77
2019-06-15T22:31:35.101Z,11.65
2019-06-15T22:34:02.426Z,7.10
2019-06-15T22:36:29.750Z,6.75
2019-06-15T22:38:57.132Z,11.70
2019-06-15T22:41:24.413Z,8.28
2019-06-15T22:43:51.732Z,6.50
2019-06-15T22:46:19.083Z,7.92
2019-06-15T22:48:46.998Z,9.68
2019-06-15T22:51:16.667Z,8.53
2019-06-15T22:53:43.677Z,3.70
2019-06-15T22:56:11.094Z,6.97
2019-06-15T22:58:38.417Z,7.40
2019-06-15T23:01:06.190Z,5.25
2019-06-15T23:03:33.587Z,5.75
2019-06-15T23:06:00.931Z,8.43
2019-06-15T23:08:28.246Z,6.92
2019-06-15T23:10:57.147Z,8.58
2019-06-15T23:13:26.172Z,10.18
2019-06-15T23:15:56.209Z,7.87
2019-06-15T23:18:22.626Z,5.85
2019-06-15T23:20:50.019Z,7.83
2019-06-15T23:23:17.405Z,10.05
2019-06-15T23:25:47.028Z,10.50
2019-06-15T23:28:16.357Z,6.15
2019-06-15T23:30:43.481Z,6.42
2019-06-15T23:33:10.810Z,11.57
2019-06-15T23:35:42.756Z,8.65
2019-06-15T23:38:10.100Z,5.85
2019-06-15T23:40:37.412Z,14.03
2019-06-15T23:43:06.206Z,9.40
2019-06-15T23:45:35.971Z,7.10
2019-06-15T23:48:02.886Z,9.18
2019-06-15T23:50:30.263Z,11.22
2019-06-15T23:52:57.564Z,5.85
2019-06-15T23:55:26.774Z,6.20
2019-06-15T23:57:53.864Z,5.25
